createdAt,value
2023-03-19T00:02:17.857Z,2.02
2023-03-19T00:04:47.494Z,2.00
2023-03-19T00:07:17.047Z,1.95
2023-03-19T00:09:48.280Z,1.95
2023-03-19T00:12:17.709Z,1.87
2023-03-19T00:14:46.778Z,1.81
2023-03-19T00:17:15.485Z,1.81
2023-03-19T00:19:44.678Z,1.83
2023-03-19T00:22:13.448Z,1.95
2023-03-19T00:24:42.189Z,2.02
2023-03-19T00:27:11.049Z,2.03
2023-03-19T00:29:39.774Z,1.98
2023-03-19T00:32:08.448Z,1.92
2023-03-19T00:34:37.536Z,1.86
2023-03-19T00:37:06.298Z,1.74
2023-03-19T00:39:35.138Z,1.65
2023-03-19T00:42:03.995Z,1.61
2023-03-19T00:44:32.666Z,1.73
2023-03-19T00:47:01.502Z,1.83
2023-03-19T00:49:30.231Z,1.83
2023-03-19T00:51:58.880Z,1.73
2023-03-19T00:54:27.742Z,1.70
2023-03-19T00:56:57.004Z,1.70
2023-03-19T00:59:25.827Z,1.77
2023-03-19T01:01:54.630Z,1.86
2023-03-19T01:04:23.492Z,1.84
2023-03-19T01:06:52.377Z,1.79
2023-03-19T01:09:21.247Z,1.89
2023-03-19T01:11:49.979Z,2.01
2023-03-19T01:14:18.654Z,1.99
2023-03-19T01:16:47.479Z,1.93
2023-03-19T01:19:16.494Z,1.89
2023-03-19T01:21:46.592Z,1.88
2023-03-19T01:24:16.873Z,1.88
2023-03-19T01:26:45.603Z,1.88
2023-03-19T01:29:14.320Z,1.86
2023-03-19T01:31:43.096Z,1.85
2023-03-19T01:34:12.536Z,1.88
2023-03-19T01:36:41.260Z,1.95
2023-03-19T01:39:10.776Z,2.10
2023-03-19T01:41:39.463Z,2.22
2023-03-19T01:44:35.676Z,2.24
2023-03-19T01:47:16.915Z,2.18
2023-03-19T01:49:53.014Z,2.19
2023-03-19T01:52:25.431Z,2.14
2023-03-19T01:54:56.243Z,2.15
2023-03-19T01:57:25.537Z,2.18
2023-03-19T01:59:57.366Z,2.23
2023-03-19T02:02:31.359Z,2.32
2023-03-19T02:05:12.264Z,2.42
2023-03-19T02:07:44.956Z,2.46
2023-03-19T02:10:17.053Z,2.44
2023-03-19T02:12:46.562Z,2.45
2023-03-19T02:15:16.028Z,2.55
2023-03-19T02:17:45.426Z,2.47
2023-03-19T02:20:16.967Z,2.34
2023-03-19T02:23:21.280Z,2.25
2023-03-19T02:26:13.797Z,2.19
2023-03-19T02:28:45.878Z,2.15
2023-03-19T02:31:16.159Z,2.22
2023-03-19T02:33:45.566Z,2.28
2023-03-19T02:36:18.001Z,2.28
2023-03-19T02:38:48.417Z,2.19
2023-03-19T02:41:17.599Z,2.19
2023-03-19T02:43:46.768Z,2.28
2023-03-19T02:46:15.659Z,2.25
2023-03-19T02:48:44.354Z,2.10
2023-03-19T02:51:13.636Z,2.01
2023-03-19T02:53:42.305Z,1.99
2023-03-19T02:56:11.177Z,2.02
2023-03-19T02:58:40.098Z,2.02
2023-03-19T03:01:08.918Z,1.95
2023-03-19T03:03:38.213Z,2.06
2023-03-19T03:06:07.293Z,2.23
2023-03-19T03:08:36.793Z,2.31
2023-03-19T03:11:05.928Z,2.32
2023-03-19T03:13:34.929Z,2.28
2023-03-19T03:16:03.820Z,2.18
2023-03-19T03:18:32.804Z,2.11
2023-03-19T03:21:01.891Z,2.08
2023-03-19T03:23:30.562Z,2.05
2023-03-19T03:25:59.471Z,2.04
2023-03-19T03:28:28.127Z,2.04
2023-03-19T03:31:01.175Z,2.00
2023-03-19T03:33:30.220Z,2.12
2023-03-19T03:35:58.941Z,2.17
2023-03-19T03:38:27.683Z,2.14
2023-03-19T03:40:56.371Z,2.20
2023-03-19T03:43:25.541Z,2.22
2023-03-19T03:45:54.547Z,2.19
2023-03-19T03:48:23.717Z,2.27
2023-03-19T03:50:52.425Z,2.39
2023-03-19T03:53:21.609Z,2.30
2023-03-19T03:55:50.359Z,2.21
2023-03-19T03:58:19.031Z,2.29
2023-03-19T04:00:48.382Z,2.23
2023-03-19T04:03:17.564Z,2.16
2023-03-19T04:05:46.474Z,2.09
2023-03-19T04:08:15.944Z,2.03
2023-03-19T04:10:44.969Z,2.06
2023-03-19T04:13:13.833Z,2.04
2023-03-19T04:15:43.535Z,2.02
2023-03-19T04:18:12.257Z,1.95
2023-03-19T04:20:41.424Z,2.03
2023-03-19T04:23:10.267Z,2.08
2023-03-19T04:25:41.279Z,2.05
2023-03-19T04:28:10.457Z,1.95
2023-03-19T04:30:39.494Z,1.95
2023-03-19T04:33:08.466Z,1.95
2023-03-19T04:35:37.581Z,1.89
2023-03-19T04:38:06.255Z,1.87
2023-03-19T04:40:36.173Z,1.86
2023-03-19T04:43:05.766Z,1.87
2023-03-19T04:45:34.500Z,1.92
2023-03-19T04:48:05.858Z,1.92
2023-03-19T04:50:35.034Z,1.93
2023-03-19T04:53:04.094Z,1.90
2023-03-19T04:55:33.101Z,1.77
2023-03-19T04:58:02.097Z,1.68
2023-03-19T05:00:31.715Z,1.65
2023-03-19T05:03:00.846Z,1.66
2023-03-19T05:05:29.788Z,1.75
2023-03-19T05:07:58.617Z,1.84
2023-03-19T05:10:27.364Z,1.78
2023-03-19T05:12:56.299Z,1.72
2023-03-19T05:15:25.375Z,1.66
2023-03-19T05:17:54.180Z,1.68
2023-03-19T05:20:24.795Z,1.71
2023-03-19T05:22:53.588Z,1.56
2023-03-19T05:25:22.360Z,1.47
2023-03-19T05:27:51.060Z,1.52
2023-03-19T05:30:19.884Z,1.64
2023-03-19T05:32:48.645Z,1.72
2023-03-19T05:35:17.503Z,1.78
2023-03-19T05:37:46.306Z,1.84
2023-03-19T05:40:16.589Z,2.00
2023-03-19T05:42:45.716Z,2.19
2023-03-19T05:45:14.947Z,2.28
2023-03-19T05:47:45.022Z,2.20
2023-03-19T05:50:13.933Z,2.13
2023-03-19T05:52:42.830Z,2.10
2023-03-19T05:55:12.114Z,2.14
2023-03-19T05:57:41.343Z,2.22
2023-03-19T06:00:12.210Z,2.42
2023-03-19T06:02:41.074Z,2.63
2023-03-19T06:05:11.172Z,2.67
2023-03-19T06:07:39.988Z,2.87
2023-03-19T06:10:09.595Z,3.09
2023-03-19T06:12:38.386Z,3.25
2023-03-19T06:15:07.984Z,3.33
2023-03-19T06:17:37.505Z,3.31
2023-03-19T06:20:06.949Z,3.50
2023-03-19T06:22:36.845Z,3.73
2023-03-19T06:25:06.716Z,3.97
2023-03-19T06:27:35.472Z,4.13
2023-03-19T06:30:05.262Z,4.23
2023-03-19T06:32:34.054Z,4.36
2023-03-19T06:35:03.456Z,4.42
2023-03-19T06:37:33.230Z,4.46
2023-03-19T06:40:02.043Z,4.49
2023-03-19T06:42:31.213Z,4.59
2023-03-19T06:45:00.267Z,4.75
2023-03-19T06:47:29.058Z,4.94
2023-03-19T06:49:57.847Z,5.16
2023-03-19T06:52:27.230Z,5.32
2023-03-19T06:54:55.901Z,5.42
2023-03-19T06:57:24.653Z,5.53
2023-03-19T06:59:53.342Z,5.54
2023-03-19T07:02:23.223Z,5.62
2023-03-19T07:04:52.461Z,5.72
2023-03-19T07:07:21.550Z,5.79
2023-03-19T07:09:50.592Z,5.85
2023-03-19T07:12:19.309Z,5.97
2023-03-19T07:14:48.242Z,6.10
2023-03-19T07:17:17.229Z,6.21
2023-03-19T07:19:45.971Z,6.33
2023-03-19T07:22:14.837Z,6.43
2023-03-19T07:24:44.155Z,6.62
2023-03-19T07:27:12.977Z,6.69
2023-03-19T07:29:41.714Z,6.71
2023-03-19T07:32:11.718Z,6.86
2023-03-19T07:34:40.824Z,6.97
2023-03-19T07:37:09.719Z,7.03
2023-03-19T07:39:39.088Z,7.15
2023-03-19T07:42:07.941Z,7.26
2023-03-19T07:44:36.633Z,7.32
2023-03-19T07:47:08.189Z,7.50
2023-03-19T07:49:42.236Z,7.74
2023-03-19T07:52:11.176Z,8.01
2023-03-19T07:54:39.971Z,8.33
2023-03-19T07:57:12.218Z,8.55
2023-03-19T07:59:43.719Z,8.86
2023-03-19T08:02:13.924Z,9.16
2023-03-19T08:04:42.768Z,9.46
2023-03-19T08:07:12.811Z,9.80
2023-03-19T08:09:41.812Z,10.14
2023-03-19T08:12:11.013Z,10.44
2023-03-19T08:14:39.824Z,10.72
2023-03-19T08:17:08.894Z,11.06
2023-03-19T08:19:37.713Z,11.32
2023-03-19T08:22:06.569Z,11.44
2023-03-19T08:24:35.296Z,11.72
2023-03-19T08:27:08.244Z,11.92
2023-03-19T08:29:37.183Z,11.99
2023-03-19T08:32:06.311Z,12.08
2023-03-19T08:34:36.023Z,12.06
2023-03-19T08:37:04.786Z,12.09
2023-03-19T08:39:33.496Z,12.01
2023-03-19T08:42:02.269Z,11.97
2023-03-19T08:44:31.066Z,11.96
2023-03-19T08:46:59.748Z,11.89
2023-03-19T08:49:28.448Z,11.88
2023-03-19T08:51:59.416Z,11.89
2023-03-19T08:54:28.278Z,11.94
2023-03-19T08:56:56.994Z,12.04
2023-03-19T08:59:25.729Z,12.17
2023-03-19T09:01:54.692Z,12.27
2023-03-19T09:04:23.721Z,12.38
2023-03-19T09:06:52.579Z,12.54
2023-03-19T09:09:23.628Z,12.63
2023-03-19T09:11:52.388Z,12.79
2023-03-19T09:14:23.221Z,12.95
2023-03-19T09:16:52.141Z,13.10
2023-03-19T09:19:21.526Z,13.24
2023-03-19T09:21:50.927Z,13.38
2023-03-19T09:24:20.083Z,13.53
2023-03-19T09:26:49.754Z,13.64
2023-03-19T09:29:18.519Z,13.71
2023-03-19T09:31:47.266Z,13.81
2023-03-19T09:34:16.566Z,13.92
2023-03-19T09:36:45.407Z,13.93
2023-03-19T09:39:14.167Z,13.89
2023-03-19T09:42:04.948Z,13.84
2023-03-19T09:44:39.831Z,13.88
2023-03-19T09:47:31.684Z,14.03
2023-03-19T09:50:05.220Z,14.30
2023-03-19T09:52:51.397Z,14.56
2023-03-19T09:55:32.802Z,14.76
2023-03-19T09:58:02.670Z,14.95
2023-03-19T10:00:37.479Z,15.04
2023-03-19T10:03:31.024Z,15.04
2023-03-19T10:06:32.647Z,15.05
2023-03-19T10:09:20.568Z,15.07
2023-03-19T10:12:07.624Z,15.10
2023-03-19T10:14:55.159Z,15.29
2023-03-19T10:17:39.674Z,15.40
2023-03-19T10:20:34.363Z,15.35
2023-03-19T10:23:22.010Z,15.41
2023-03-19T10:25:55.766Z,15.48
2023-03-19T10:28:27.766Z,15.56
2023-03-19T10:31:11.776Z,15.62
2023-03-19T10:34:21.942Z,15.62
2023-03-19T10:37:00.194Z,15.51
2023-03-19T10:39:31.572Z,15.51
2023-03-19T10:42:33.234Z,15.37
2023-03-19T10:45:22.593Z,15.46
2023-03-19T10:47:52.964Z,15.50
2023-03-19T10:50:47.865Z,15.51
2023-03-19T10:53:16.848Z,15.48
2023-03-19T10:55:55.131Z,15.49
2023-03-19T10:58:27.250Z,15.53
2023-03-19T11:00:59.046Z,15.46
2023-03-19T11:03:36.820Z,15.45
2023-03-19T11:06:23.607Z,15.39
2023-03-19T11:09:08.798Z,15.22
2023-03-19T11:11:53.601Z,15.18
2023-03-19T11:14:36.024Z,15.20
2023-03-19T11:17:14.108Z,15.10
2023-03-19T11:19:52.165Z,15.01
2023-03-19T11:22:23.114Z,14.98
2023-03-19T11:24:53.855Z,14.99
2023-03-19T11:27:34.724Z,14.98
2023-03-19T11:30:24.165Z,14.89
2023-03-19T11:33:15.832Z,14.83
2023-03-19T11:35:55.703Z,14.78
2023-03-19T11:38:33.275Z,14.77
2023-03-19T11:41:23.412Z,14.83
2023-03-19T11:44:01.640Z,14.94
2023-03-19T11:46:54.620Z,14.91
2023-03-19T11:49:42.046Z,14.85
2023-03-19T11:52:48.809Z,14.85
2023-03-19T11:55:37.585Z,14.80
2023-03-19T11:58:29.987Z,14.78
2023-03-19T12:01:11.666Z,14.74
2023-03-19T12:04:28.749Z,14.67
2023-03-19T12:07:12.122Z,14.58
2023-03-19T12:10:18.807Z,14.56
2023-03-19T12:13:00.880Z,14.53
2023-03-19T12:16:05.059Z,14.52
2023-03-19T12:18:59.863Z,14.46
2023-03-19T12:21:29.399Z,14.46
2023-03-19T12:24:08.159Z,14.45
2023-03-19T12:26:48.957Z,14.50
2023-03-19T12:29:48.259Z,14.55
2023-03-19T12:32:32.813Z,14.59
2023-03-19T12:35:11.830Z,14.66
2023-03-19T12:37:51.596Z,14.67
2023-03-19T12:40:28.191Z,14.66
2023-03-19T12:43:06.796Z,14.64
2023-03-19T12:45:47.682Z,14.67
2023-03-19T12:48:27.302Z,14.65
2023-03-19T12:51:02.059Z,14.63
2023-03-19T12:53:48.856Z,14.60
2023-03-19T12:56:29.008Z,14.60
2023-03-19T12:59:29.072Z,14.67
2023-03-19T13:02:24.983Z,14.70
2023-03-19T13:05:07.420Z,14.66
2023-03-19T13:08:04.439Z,14.70
2023-03-19T13:10:36.337Z,14.67
2023-03-19T13:13:37.386Z,14.67
2023-03-19T13:16:33.472Z,14.66
2023-03-19T13:19:23.492Z,14.56
2023-03-19T13:21:56.212Z,14.47
2023-03-19T13:24:40.812Z,14.47
2023-03-19T13:27:15.793Z,14.47
2023-03-19T13:30:12.130Z,14.39
2023-03-19T13:33:05.787Z,14.36
2023-03-19T13:35:43.628Z,14.34
2023-03-19T13:38:21.140Z,14.36
2023-03-19T13:40:57.965Z,14.37
2023-03-19T13:43:29.678Z,14.40
2023-03-19T13:46:35.503Z,14.41
2023-03-19T13:49:26.320Z,14.38
2023-03-19T13:52:01.400Z,14.35
2023-03-19T13:54:54.473Z,14.34
2023-03-19T13:57:34.754Z,14.30
2023-03-19T14:00:41.357Z,14.29
2023-03-19T14:03:19.996Z,14.24
2023-03-19T14:05:51.315Z,14.21
2023-03-19T14:08:29.978Z,14.19
2023-03-19T14:11:00.693Z,14.18
2023-03-19T14:13:37.961Z,14.18
2023-03-19T14:16:43.200Z,14.18
2023-03-19T14:19:18.341Z,14.18
2023-03-19T14:21:59.576Z,14.20
2023-03-19T14:24:55.870Z,14.19
2023-03-19T14:27:30.634Z,14.21
2023-03-19T14:30:08.892Z,14.23
2023-03-19T14:32:41.202Z,14.23
2023-03-19T14:35:16.975Z,14.21
2023-03-19T14:37:52.480Z,14.21
2023-03-19T14:40:38.504Z,14.21
2023-03-19T14:43:45.592Z,14.18
2023-03-19T14:46:32.782Z,14.17
2023-03-19T14:49:38.901Z,14.13
2023-03-19T14:52:17.207Z,14.13
2023-03-19T14:54:53.325Z,14.14
2023-03-19T14:57:27.630Z,14.14
2023-03-19T14:59:56.962Z,14.12
2023-03-19T15:02:49.172Z,14.08
2023-03-19T15:05:24.368Z,14.09
2023-03-19T15:08:04.537Z,14.09
2023-03-19T15:10:50.462Z,14.09
2023-03-19T15:13:38.041Z,14.10
2023-03-19T15:16:16.449Z,14.09
2023-03-19T15:18:45.244Z,14.07
2023-03-19T15:21:14.039Z,14.06
2023-03-19T15:23:46.475Z,14.06
2023-03-19T15:26:18.667Z,14.07
2023-03-19T15:28:53.993Z,14.04
2023-03-19T15:31:33.808Z,14.03
2023-03-19T15:34:23.291Z,14.02
2023-03-19T15:37:06.144Z,14.00
2023-03-19T15:39:41.215Z,13.99
2023-03-19T15:42:10.836Z,13.98
2023-03-19T15:44:44.510Z,13.96
2023-03-19T15:47:22.042Z,13.93
2023-03-19T15:49:59.089Z,13.86
2023-03-19T15:52:32.201Z,13.81
2023-03-19T15:55:02.592Z,13.78
2023-03-19T15:57:31.847Z,13.72
2023-03-19T16:00:01.041Z,13.68
2023-03-19T16:02:32.929Z,13.63
2023-03-19T16:05:21.894Z,13.58
2023-03-19T16:08:00.165Z,13.53
2023-03-19T16:10:28.862Z,13.47
2023-03-19T16:13:03.417Z,13.41
2023-03-19T16:15:47.275Z,13.33
2023-03-19T16:18:15.990Z,13.21
2023-03-19T16:21:00.309Z,13.12
2023-03-19T16:23:33.603Z,13.04
2023-03-19T16:26:15.881Z,12.91
2023-03-19T16:29:07.524Z,12.77
2023-03-19T16:31:51.884Z,12.60
2023-03-19T16:34:56.374Z,12.49
2023-03-19T16:37:31.237Z,12.35
2023-03-19T16:40:13.799Z,12.23
2023-03-19T16:42:47.459Z,12.09
2023-03-19T16:45:16.682Z,11.92
2023-03-19T16:47:51.114Z,11.77
2023-03-19T16:50:22.506Z,11.65
2023-03-19T16:52:51.282Z,11.56
2023-03-19T16:55:24.500Z,11.41
2023-03-19T16:57:57.908Z,11.27
2023-03-19T17:00:30.690Z,11.10
2023-03-19T17:03:00.685Z,10.96
2023-03-19T17:05:29.967Z,10.77
2023-03-19T17:07:58.728Z,10.58
2023-03-19T17:10:30.315Z,10.47
2023-03-19T17:13:00.945Z,10.36
2023-03-19T17:15:38.771Z,10.24
2023-03-19T17:18:16.804Z,10.09
2023-03-19T17:20:59.336Z,9.94
2023-03-19T17:23:28.221Z,9.82
2023-03-19T17:25:57.351Z,9.67
2023-03-19T17:28:26.785Z,9.56
2023-03-19T17:30:55.677Z,9.47
2023-03-19T17:33:28.125Z,9.37
2023-03-19T17:35:59.125Z,9.22
2023-03-19T17:38:34.586Z,9.05
2023-03-19T17:41:12.739Z,8.96
2023-03-19T17:43:41.487Z,8.86
2023-03-19T17:46:19.917Z,8.75
2023-03-19T17:48:50.219Z,8.73
2023-03-19T17:51:19.539Z,8.71
2023-03-19T17:53:50.743Z,8.67
2023-03-19T17:56:21.441Z,8.60
2023-03-19T17:58:50.603Z,8.47
2023-03-19T18:01:27.242Z,8.38
2023-03-19T18:03:58.108Z,8.27
2023-03-19T18:06:33.122Z,8.18
2023-03-19T18:09:02.643Z,8.06
2023-03-19T18:11:31.405Z,7.93
2023-03-19T18:14:00.233Z,7.85
2023-03-19T18:16:33.131Z,7.79
2023-03-19T18:19:04.388Z,7.75
2023-03-19T18:21:33.051Z,7.67
2023-03-19T18:24:02.053Z,7.58
2023-03-19T18:26:31.765Z,7.48
2023-03-19T18:29:00.753Z,7.37
2023-03-19T18:31:30.488Z,7.34
2023-03-19T18:34:05.842Z,7.37
2023-03-19T18:36:35.390Z,7.34
2023-03-19T18:39:04.131Z,7.26
2023-03-19T18:41:33.051Z,7.16
2023-03-19T18:44:01.735Z,7.06
2023-03-19T18:46:32.407Z,7.02
2023-03-19T18:49:13.895Z,6.96
2023-03-19T18:51:58.858Z,6.86
2023-03-19T18:54:31.925Z,6.85
2023-03-19T18:57:02.097Z,6.85
2023-03-19T18:59:33.040Z,6.75
2023-03-19T19:02:28.485Z,6.62
2023-03-19T19:04:58.268Z,6.52
2023-03-19T19:07:26.998Z,6.46
2023-03-19T19:09:55.776Z,6.52
2023-03-19T19:12:26.371Z,6.58
2023-03-19T19:14:57.310Z,6.50
2023-03-19T19:17:29.204Z,6.44
2023-03-19T19:19:58.041Z,6.43
2023-03-19T19:22:27.929Z,6.39
2023-03-19T19:24:57.081Z,6.29
2023-03-19T19:27:26.880Z,6.16
2023-03-19T19:29:55.626Z,6.04
2023-03-19T19:32:27.262Z,5.91
2023-03-19T19:34:56.320Z,5.82
2023-03-19T19:37:25.404Z,5.74
2023-03-19T19:39:54.156Z,5.71
2023-03-19T19:42:23.502Z,5.68
2023-03-19T19:44:56.377Z,5.68
2023-03-19T19:47:25.092Z,5.71
2023-03-19T19:49:53.753Z,5.64
2023-03-19T19:52:22.719Z,5.58
2023-03-19T19:54:51.966Z,5.57
2023-03-19T19:57:24.689Z,5.53
2023-03-19T19:59:55.572Z,5.47
2023-03-19T20:02:28.905Z,5.38
2023-03-19T20:04:58.692Z,5.27
2023-03-19T20:07:27.365Z,5.21
2023-03-19T20:09:56.105Z,5.24
2023-03-19T20:12:32.925Z,5.27
2023-03-19T20:18:07.497Z,5.32
2023-03-19T20:20:41.326Z,5.40
2023-03-19T20:23:10.993Z,5.36
2023-03-19T20:25:39.961Z,5.35
2023-03-19T20:28:20.726Z,5.25
2023-03-19T20:30:51.860Z,5.14
2023-03-19T20:33:21.120Z,5.10
2023-03-19T20:35:51.194Z,5.04
2023-03-19T20:38:20.428Z,5.03
2023-03-19T20:40:54.634Z,5.08
2023-03-19T20:43:30.159Z,5.24
2023-03-19T20:46:02.893Z,5.36
2023-03-19T20:48:33.585Z,5.45
2023-03-19T20:51:02.989Z,5.54
2023-03-19T20:53:33.124Z,5.54
2023-03-19T20:56:04.346Z,5.56
2023-03-19T20:58:37.024Z,5.58
2023-03-19T21:01:05.956Z,5.62
2023-03-19T21:03:34.834Z,5.67
2023-03-19T21:06:18.204Z,5.68
2023-03-19T21:08:50.896Z,5.76
2023-03-19T21:11:23.004Z,5.84
2023-03-19T21:13:53.040Z,5.82
2023-03-19T21:16:25.658Z,5.73
2023-03-19T21:18:54.517Z,5.66
2023-03-19T21:21:29.998Z,5.64
2023-03-19T21:24:06.703Z,5.60
2023-03-19T21:26:38.641Z,5.54
2023-03-19T21:29:14.146Z,5.49
2023-03-19T21:31:43.023Z,5.52
2023-03-19T21:34:14.564Z,5.57
2023-03-19T21:36:43.243Z,5.53
2023-03-19T21:39:11.926Z,5.51
2023-03-19T21:41:42.283Z,5.43
2023-03-19T21:44:15.407Z,5.31
2023-03-19T21:46:46.696Z,5.22
2023-03-19T21:49:16.244Z,5.15
2023-03-19T21:51:44.954Z,5.08
2023-03-19T21:54:15.708Z,5.04
2023-03-19T21:56:45.918Z,5.08
2023-03-19T21:59:18.122Z,5.13
2023-03-19T22:01:47.452Z,5.17
2023-03-19T22:04:16.333Z,5.18
2023-03-19T22:06:46.696Z,5.22
2023-03-19T22:09:15.389Z,5.24
2023-03-19T22:11:46.024Z,5.24
2023-03-19T22:14:19.316Z,5.17
2023-03-19T22:16:53.455Z,5.05
2023-03-19T22:19:23.854Z,4.98
2023-03-19T22:21:53.495Z,5.02
2023-03-19T22:24:22.212Z,4.97
2023-03-19T22:26:57.486Z,5.04
2023-03-19T22:29:26.379Z,5.07
2023-03-19T22:31:56.357Z,4.93
2023-03-19T22:34:28.052Z,4.87
2023-03-19T22:36:56.796Z,4.78
2023-03-19T22:39:25.481Z,4.63
2023-03-19T22:41:54.296Z,4.52
2023-03-19T22:44:29.522Z,4.58
2023-03-19T22:47:00.649Z,4.61
2023-03-19T22:49:30.117Z,4.63
2023-03-19T22:51:58.931Z,4.56
2023-03-19T22:54:27.635Z,4.41
2023-03-19T22:56:56.356Z,4.33
2023-03-19T22:59:25.512Z,4.31
2023-03-19T23:01:58.183Z,4.33
2023-03-19T23:04:30.029Z,4.35
2023-03-19T23:07:00.893Z,4.28
2023-03-19T23:09:32.310Z,4.19
2023-03-19T23:12:02.256Z,4.26
2023-03-19T23:14:32.346Z,4.35
2023-03-19T23:17:09.961Z,4.40
2023-03-19T23:19:38.675Z,4.37
2023-03-19T23:22:13.877Z,4.35
2023-03-19T23:24:42.652Z,4.30
2023-03-19T23:27:22.991Z,4.11
2023-03-19T23:29:52.552Z,3.98
2023-03-19T23:32:22.029Z,3.89
2023-03-19T23:34:59.413Z,3.93
2023-03-19T23:37:29.971Z,4.00
2023-03-19T23:40:00.234Z,4.08
2023-03-19T23:42:31.402Z,4.06
2023-03-19T23:45:03.769Z,3.96
2023-03-19T23:47:33.411Z,3.92
2023-03-19T23:50:02.074Z,3.89
2023-03-19T23:52:30.761Z,3.84
2023-03-19T23:54:59.438Z,3.75
2023-03-19T23:57:28.272Z,3.63
2023-03-19T23:59:58.329Z,3.58
